Time;durP1;ratioP1;P1;durP2;ratioP2;P2;SDS_P1;SDS_P2;PMS_P1;PMS_P2;Temp;Humidity;BMP_temperature;BMP_pressure;BME280_temperature;BME280_humidity;BME280_pressure;Samples;Min_cycle;Max_cycle;Signal;HPM_P1;HPM_P2
2023/01/19 00:00:07;;;;;;;7.83;7.03;;;;;19.30;99037.00;;;;2085036;28;20221;-69
2023/01/19 00:01:07;;;;;;;8.90;7.38;;;;;19.30;99029.00;;;;2083609;28;20217;-68
2023/01/19 00:02:07;;;;;;;7.90;7.10;;;;;19.20;99026.00;;;;2083758;28;20711;-68
2023/01/19 00:03:14;;;;;;;7.20;6.50;;;;;19.20;99028.00;;;;2084104;28;20232;-68
2023/01/19 00:04:15;;;;;;;8.93;6.45;;;;;19.20;99032.00;;;;2084735;28;20272;-68
2023/01/19 00:05:15;;;;;;;7.40;6.70;;;;;19.20;99034.00;;;;2084951;28;20233;-68
2023/01/19 00:06:15;;;;;;;8.60;6.83;;;;;19.20;99025.00;;;;2084454;28;20222;-68
2023/01/19 00:07:16;;;;;;;8.40;6.97;;;;;19.20;99031.00;;;;2084510;28;20263;-68
2023/01/19 00:08:16;;;;;;;7.80;6.60;;;;;19.20;99030.00;;;;2084571;28;20225;-68
2023/01/19 00:09:17;;;;;;;7.63;6.83;;;;;19.20;99030.00;;;;2083308;28;20224;-68
2023/01/19 00:10:17;;;;;;;7.60;6.80;;;;;19.20;99025.00;;;;2082777;28;20217;-69
2023/01/19 00:11:17;;;;;;;7.17;6.47;;;;;19.10;99040.00;;;;2083180;28;20676;-69
2023/01/19 00:12:18;;;;;;;6.97;5.93;;;;;19.20;99031.00;;;;2083712;28;20221;-68
2023/01/19 00:13:18;;;;;;;7.60;6.80;;;;;19.20;99027.00;;;;2085109;28;20214;-68
2023/01/19 00:14:18;;;;;;;7.13;6.13;;;;;19.20;99027.00;;;;2084999;28;20260;-68
2023/01/19 00:15:19;;;;;;;7.13;6.43;;;;;19.10;99030.00;;;;2084987;28;20707;-68
2023/01/19 00:16:21;;;;;;;6.80;6.10;;;;;19.20;99035.00;;;;2085012;28;20695;-68
2023/01/19 00:17:21;;;;;;;6.20;5.60;;;;;19.20;99038.00;;;;2084257;28;20216;-68
2023/01/19 00:18:22;;;;;;;7.40;6.60;;;;;19.10;99036.00;;;;2083481;28;20213;-68
2023/01/19 00:19:22;;;;;;;7.63;6.30;;;;;19.20;99035.00;;;;2083531;28;20220;-68
2023/01/19 00:20:22;;;;;;;6.50;5.87;;;;;19.10;99043.00;;;;2084305;28;20305;-68
2023/01/19 00:21:23;;;;;;;5.93;5.33;;;;;19.10;99026.00;;;;2085273;28;20235;-68
2023/01/19 00:22:23;;;;;;;7.20;6.47;;;;;19.10;99037.00;;;;2085465;28;20217;-68
2023/01/19 00:23:24;;;;;;;6.33;5.73;;;;;19.10;99033.00;;;;2084976;28;20275;-68
2023/01/19 00:24:24;;;;;;;6.77;5.43;;;;;19.10;99020.00;;;;2085195;28;20735;-68
2023/01/19 00:25:25;;;;;;;6.23;5.63;;;;;19.10;99025.00;;;;2084714;28;20216;-68
2023/01/19 00:26:25;;;;;;;5.50;5.00;;;;;19.10;99039.00;;;;2085767;28;20215;-68
2023/01/19 00:27:25;;;;;;;6.63;6.03;;;;;19.10;99038.00;;;;2084680;28;20222;-68
2023/01/19 00:28:26;;;;;;;6.00;5.40;;;;;19.10;99034.00;;;;2084196;28;20705;-68
2023/01/19 00:29:29;;;;;;;6.07;5.47;;;;;19.10;99022.00;;;;2081428;28;20221;-68
2023/01/19 00:30:29;;;;;;;6.53;5.68;;;;;19.10;99019.00;;;;2085129;28;20241;-68
2023/01/19 00:31:32;;;;;;;5.83;5.23;;;;;19.10;99024.00;;;;2086312;28;20205;-68
2023/01/19 00:32:35;;;;;;;5.88;5.30;;;;;19.10;99025.00;;;;2083272;28;20600;-69
2023/01/19 00:33:36;;;;;;;6.68;5.60;;;;;19.10;99031.00;;;;2084837;28;20217;-69
2023/01/19 00:34:38;;;;;;;6.23;5.63;;;;;19.10;99036.00;;;;2084961;28;20209;-68
2023/01/19 00:35:38;;;;;;;5.45;4.95;;;;;19.10;99034.00;;;;2084947;28;20444;-68
2023/01/19 00:36:39;;;;;;;6.07;5.47;;;;;19.10;99041.00;;;;2084648;28;20212;-68
2023/01/19 00:37:39;;;;;;;5.67;5.13;;;;;19.10;99038.00;;;;2084199;28;20209;-68
2023/01/19 00:38:40;;;;;;;6.10;5.50;;;;;19.10;99050.00;;;;2084022;28;20208;-68
2023/01/19 00:39:40;;;;;;;6.40;5.77;;;;;19.00;99051.00;;;;2084010;28;20307;-68
2023/01/19 00:40:40;;;;;;;5.40;4.90;;;;;19.10;99040.00;;;;2084348;28;20669;-68
2023/01/19 00:42:59;;;;;;;5.43;4.90;;;;;19.00;99054.00;;;;2083898;28;20225;-68
2023/01/19 00:44:00;;;;;;;5.77;4.83;;;;;19.00;99043.00;;;;2078450;28;20246;-68
2023/01/19 00:45:00;;;;;;;6.17;5.57;;;;;19.00;99051.00;;;;2084036;28;20217;-68
2023/01/19 00:46:01;;;;;;;5.70;4.80;;;;;19.10;99043.00;;;;2084885;28;20213;-69
2023/01/19 00:47:03;;;;;;;6.07;5.47;;;;;19.00;99052.00;;;;2084232;28;20278;-68
2023/01/19 00:48:04;;;;;;;5.30;4.63;;;;;19.00;99054.00;;;;2082897;28;20209;-68
2023/01/19 00:49:04;;;;;;;5.50;4.83;;;;;19.00;99042.00;;;;2083290;28;20217;-68
2023/01/19 00:50:06;;;;;;;5.83;5.30;;;;;19.00;99049.00;;;;2083974;28;20217;-68
2023/01/19 00:51:06;;;;;;;5.25;4.75;;;;;19.00;99037.00;;;;2083076;28;20295;-69
2023/01/19 00:52:07;;;;;;;5.60;5.10;;;;;19.00;99048.00;;;;2065957;28;20218;-69
2023/01/19 00:53:07;;;;;;;5.40;4.90;;;;;19.00;99036.00;;;;2076202;28;20236;-69
2023/01/19 00:54:09;;;;;;;5.90;5.20;;;;;19.00;99010.00;;;;2082268;28;20221;-69
2023/01/19 00:55:10;;;;;;;6.47;5.00;;;;;19.00;99038.00;;;;2082615;28;20763;-69
2023/01/19 00:56:10;;;;;;;4.78;4.38;;;;;19.00;99043.00;;;;2083212;28;20220;-68
2023/01/19 00:57:11;;;;;;;6.20;5.70;;;;;19.00;99064.00;;;;2083495;28;20215;-68
2023/01/19 00:58:11;;;;;;;5.50;5.00;;;;;19.00;99049.00;;;;2083475;28;20206;-68
2023/01/19 00:59:12;;;;;;;5.20;4.70;;;;;19.00;99044.00;;;;2084538;28;20449;-68
2023/01/19 01:00:14;;;;;;;5.43;4.93;;;;;19.00;99044.00;;;;2084701;28;20209;-68
2023/01/19 01:01:14;;;;;;;6.55;4.63;;;;;18.90;99043.00;;;;2084496;28;20216;-68
2023/01/19 01:02:15;;;;;;;5.10;4.60;;;;;19.00;99043.00;;;;2083873;28;20213;-69
2023/01/19 01:03:15;;;;;;;6.00;5.07;;;;;19.00;99039.00;;;;2082834;28;20228;-68
2023/01/19 01:04:15;;;;;;;5.50;5.00;;;;;18.90;99035.00;;;;2083530;28;20251;-68
2023/01/19 01:05:16;;;;;;;5.60;5.17;;;;;19.00;99047.00;;;;2081656;28;20212;-68
2023/01/19 01:06:16;;;;;;;5.20;4.70;;;;;18.90;99054.00;;;;2066298;28;20743;-69
2023/01/19 01:07:16;;;;;;;6.23;5.40;;;;;18.90;99050.00;;;;2083595;28;20611;-68
2023/01/19 01:08:17;;;;;;;5.93;5.20;;;;;18.90;99037.00;;;;2084313;28;20647;-68
2023/01/19 01:09:17;;;;;;;4.90;4.40;;;;;18.90;99036.00;;;;2084440;28;20631;-69
2023/01/19 01:10:22;;;;;;;5.30;4.47;;;;;18.90;99039.00;;;;2083659;28;20716;-68
2023/01/19 01:11:23;;;;;;;5.82;4.80;;;;;18.90;99040.00;;;;2079742;28;20699;-68
2023/01/19 01:12:23;;;;;;;4.83;4.30;;;;;18.90;99034.00;;;;2083580;28;20247;-68
2023/01/19 01:13:23;;;;;;;5.10;4.60;;;;;18.90;99041.00;;;;2084519;28;20213;-68
2023/01/19 01:14:24;;;;;;;4.47;4.07;;;;;18.90;99043.00;;;;2083455;28;20204;-68
2023/01/19 01:15:25;;;;;;;5.27;4.77;;;;;18.90;99043.00;;;;2082874;28;20617;-68
2023/01/19 01:16:25;;;;;;;5.50;4.90;;;;;18.90;99037.00;;;;2083604;28;20243;-68
2023/01/19 01:17:26;;;;;;;5.60;4.23;;;;;18.90;99043.00;;;;2083657;28;20208;-69
2023/01/19 01:18:26;;;;;;;5.70;4.80;;;;;18.90;99048.00;;;;2083306;28;20244;-68
2023/01/19 01:19:26;;;;;;;5.10;4.60;;;;;18.90;99050.00;;;;2083998;28;20212;-68
2023/01/19 01:20:27;;;;;;;5.50;4.87;;;;;18.90;99038.00;;;;2084450;28;20245;-68
2023/01/19 01:21:27;;;;;;;4.60;4.20;;;;;18.90;99048.00;;;;2084183;28;20230;-68
2023/01/19 01:22:28;;;;;;;4.63;4.23;;;;;18.90;99041.00;;;;2084243;28;20534;-68
2023/01/19 01:23:28;;;;;;;4.80;4.30;;;;;18.90;99040.00;;;;2083856;28;20205;-69
2023/01/19 01:24:28;;;;;;;4.90;4.50;;;;;18.90;99049.00;;;;2083271;28;20232;-68
2023/01/19 01:25:30;;;;;;;4.80;4.40;;;;;18.90;99042.00;;;;2082886;28;20213;-69
2023/01/19 01:26:30;;;;;;;5.35;4.30;;;;;18.90;99058.00;;;;2082494;28;20296;-68
2023/01/19 01:27:31;;;;;;;5.57;5.07;;;;;18.90;99044.00;;;;2082277;28;20719;-68
2023/01/19 01:28:32;;;;;;;5.13;4.70;;;;;18.90;98997.00;;;;2082811;28;20717;-69
2023/01/19 01:29:34;;;;;;;4.63;4.22;;;;;18.80;99051.00;;;;2083100;28;20216;-68
2023/01/19 01:30:38;;;;;;;4.65;4.25;;;;;18.90;99050.00;;;;2083182;28;20217;-68
2023/01/19 01:31:39;;;;;;;5.40;4.90;;;;;18.80;99047.00;;;;2083235;28;20724;-68
2023/01/19 01:32:39;;;;;;;5.03;4.53;;;;;18.80;99061.00;;;;2084335;28;20208;-68
2023/01/19 01:33:39;;;;;;;6.23;4.77;;;;;18.80;99022.00;;;;2084878;28;20637;-68
2023/01/19 01:34:40;;;;;;;5.00;4.50;;;;;18.80;99053.00;;;;2074147;28;20240;-68
2023/01/19 01:35:40;;;;;;;5.07;4.57;;;;;18.80;99061.00;;;;2075029;28;20225;-69
2023/01/19 01:36:41;;;;;;;5.17;4.67;;;;;18.80;99049.00;;;;2083289;28;20209;-69
2023/01/19 01:37:41;;;;;;;4.87;4.47;;;;;18.80;99044.00;;;;2075010;28;20600;-68
2023/01/19 01:38:42;;;;;;;4.73;4.20;;;;;18.80;99052.00;;;;2066616;28;20206;-68
2023/01/19 01:39:42;;;;;;;5.50;5.00;;;;;18.80;99052.00;;;;2074094;28;20215;-68
2023/01/19 01:40:42;;;;;;;5.10;4.60;;;;;18.80;99060.00;;;;2083064;28;20212;-68
2023/01/19 01:41:43;;;;;;;5.13;4.60;;;;;18.80;99052.00;;;;2083052;28;20337;-68
2023/01/19 01:42:44;;;;;;;4.93;4.53;;;;;18.80;99050.00;;;;2081460;28;20210;-69
2023/01/19 01:43:46;;;;;;;4.65;4.25;;;;;18.80;99053.00;;;;2082767;28;20266;-68
2023/01/19 01:44:49;;;;;;;4.20;3.80;;;;;18.80;99052.00;;;;2082758;28;20213;-68
2023/01/19 01:45:50;;;;;;;5.05;4.65;;;;;18.80;99048.00;;;;2082995;28;20205;-69
2023/01/19 01:46:50;;;;;;;4.33;4.00;;;;;18.80;99051.00;;;;2083249;28;20212;-69
2023/01/19 01:47:50;;;;;;;5.20;4.40;;;;;18.80;99056.00;;;;2082258;28;20221;-68
2023/01/19 01:49:08;;;;;;;4.97;4.43;;;;;18.80;99066.00;;;;2074108;28;20251;-68
2023/01/19 01:50:16;;;;;;;4.60;4.20;;;;;18.80;99058.00;;;;2085670;28;20213;-68
2023/01/19 01:51:41;;;;;;;4.40;4.00;;;;;18.80;99052.00;;;;2082092;28;20213;-68
2023/01/19 01:52:46;;;;;;;4.75;4.35;;;;;18.80;99040.00;;;;2063521;28;20604;-68
2023/01/19 01:53:51;;;;;;;4.15;3.75;;;;;18.80;99052.00;;;;2055272;28;20275;-68
2023/01/19 01:54:51;;;;;;;4.20;3.90;;;;;18.80;99041.00;;;;2073527;28;20838;-69
2023/01/19 01:55:52;;;;;;;4.50;3.97;;;;;18.80;99048.00;;;;2074214;28;20210;-69
2023/01/19 01:56:53;;;;;;;4.40;3.90;;;;;18.80;99055.00;;;;2070480;28;20218;-68
2023/01/19 01:57:57;;;;;;;4.68;4.28;;;;;18.80;99053.00;;;;2074145;28;20252;-68
2023/01/19 01:58:57;;;;;;;5.38;4.57;;;;;18.70;99042.00;;;;2082442;28;20233;-68
2023/01/19 01:59:57;;;;;;;4.70;4.30;;;;;18.70;99054.00;;;;2083554;28;20248;-68
2023/01/19 02:03:37;;;;;;;4.72;4.30;;;;;18.70;99044.00;;;;2082749;28;20224;-68
2023/01/19 02:04:39;;;;;;;4.80;4.37;;;;;18.70;99049.00;;;;2081230;28;20239;-68
2023/01/19 02:05:39;;;;;;;4.70;4.40;;;;;18.70;99034.00;;;;2075654;28;20226;-68
2023/01/19 02:13:21;;;;;;;4.45;4.05;;;;;18.70;99031.00;;;;2082088;28;20209;-70
2023/01/19 02:14:22;;;;;;;5.45;4.03;;;;;18.70;99048.00;;;;2073684;28;20226;-68
2023/01/19 02:15:22;;;;;;;3.57;3.23;;;;;18.70;99041.00;;;;2073701;28;20352;-69
2023/01/19 02:16:22;;;;;;;5.50;4.77;;;;;18.70;99040.00;;;;2077301;28;20213;-68
2023/01/19 02:17:23;;;;;;;4.93;4.43;;;;;18.70;99028.00;;;;2090293;28;20224;-68
2023/01/19 02:18:25;;;;;;;4.30;3.90;;;;;18.70;99042.00;;;;2081462;28;20217;-69
2023/01/19 02:19:30;;;;;;;4.35;3.95;;;;;18.60;99044.00;;;;2072100;28;20227;-68
2023/01/19 02:20:31;;;;;;;5.30;4.32;;;;;18.70;99039.00;;;;2080632;28;20621;-69
2023/01/19 02:21:53;;;;;;;4.23;3.83;;;;;18.60;99035.00;;;;2073220;28;20215;-68
2023/01/19 02:22:53;;;;;;;4.97;4.22;;;;;18.70;99027.00;;;;2072629;28;20225;-69
2023/01/19 02:23:55;;;;;;;5.00;3.90;;;;;18.70;99036.00;;;;2073614;28;20770;-69
2023/01/19 02:24:55;;;;;;;5.10;4.50;;;;;18.60;99031.00;;;;2029653;28;1039566;-69
2023/01/19 02:25:55;;;;;;;5.10;4.60;;;;;18.70;99035.00;;;;2066227;28;20272;-69
2023/01/19 02:26:55;;;;;;;4.40;4.00;;;;;18.60;99017.00;;;;2066300;28;20238;-68
2023/01/19 02:27:56;;;;;;;4.53;4.13;;;;;18.70;99036.00;;;;2070234;28;20268;-69
2023/01/19 02:29:04;;;;;;;4.20;3.80;;;;;18.70;99036.00;;;;2066985;28;20223;-68
2023/01/19 02:30:05;;;;;;;5.05;4.10;;;;;18.70;99038.00;;;;2083223;28;20305;-68
2023/01/19 02:31:06;;;;;;;3.92;3.60;;;;;18.60;99037.00;;;;2083340;28;20217;-69
2023/01/19 02:32:06;;;;;;;4.73;4.30;;;;;18.60;99029.00;;;;2075140;28;20264;-69
2023/01/19 02:33:06;;;;;;;4.10;3.70;;;;;18.60;99030.00;;;;2085150;28;20938;-69
2023/01/19 02:34:08;;;;;;;4.20;3.83;;;;;18.60;99028.00;;;;2084095;28;20232;-68
2023/01/19 02:35:09;;;;;;;5.80;4.45;;;;;18.60;99032.00;;;;2076018;28;20635;-69
2023/01/19 02:36:10;;;;;;;4.40;3.97;;;;;18.60;99043.00;;;;2076091;28;20215;-68
2023/01/19 02:37:12;;;;;;;5.22;4.50;;;;;18.60;99043.00;;;;2076078;28;20320;-69
2023/01/19 02:38:12;;;;;;;4.25;3.85;;;;;18.60;99028.00;;;;2071814;28;20241;-69
2023/01/19 02:39:13;;;;;;;4.63;4.13;;;;;18.60;99031.00;;;;2072024;28;20236;-68
2023/01/19 02:40:14;;;;;;;4.77;4.37;;;;;18.60;99030.00;;;;2064058;28;20222;-69
2023/01/19 02:41:17;;;;;;;5.00;4.50;;;;;18.60;99026.00;;;;2068480;28;20288;-68
2023/01/19 02:42:25;;;;;;;4.13;3.72;;;;;18.60;99034.00;;;;2076439;28;20666;-68
2023/01/19 02:43:25;;;;;;;4.15;3.70;;;;;18.60;99030.00;;;;2075345;28;20221;-68
2023/01/19 02:44:25;;;;;;;4.30;3.80;;;;;18.60;99038.00;;;;2068138;28;20281;-69
2023/01/19 02:45:25;;;;;;;4.17;3.60;;;;;18.60;99034.00;;;;2076350;28;20283;-68
2023/01/19 02:46:26;;;;;;;3.83;3.50;;;;;18.60;99038.00;;;;2075355;28;20684;-69
2023/01/19 02:47:26;;;;;;;4.30;3.40;;;;;18.60;99033.00;;;;2092997;28;20246;-69
2023/01/19 02:48:26;;;;;;;4.43;3.97;;;;;18.60;99031.00;;;;2088613;28;20208;-68
2023/01/19 02:49:27;;;;;;;4.00;3.70;;;;;18.60;99030.00;;;;2084398;28;20271;-69
2023/01/19 02:50:43;;;;;;;4.10;3.60;;;;;18.60;99043.00;;;;2083942;28;20256;-68
2023/01/19 02:51:44;;;;;;;5.10;3.88;;;;;18.60;99038.00;;;;2085243;28;21771;-68
2023/01/19 02:52:44;;;;;;;5.87;4.50;;;;;18.60;99038.00;;;;2084902;28;20698;-69
2023/01/19 02:54:03;;;;;;;4.60;4.07;;;;;18.60;99025.00;;;;2076441;28;20214;-68
2023/01/19 02:55:05;;;;;;;3.78;3.47;;;;;18.60;99014.00;;;;2084008;28;20334;-69
2023/01/19 02:56:17;;;;;;;4.60;4.20;;;;;18.60;99015.00;;;;2084010;28;20240;-69
2023/01/19 02:57:23;;;;;;;6.13;5.53;;;;;18.50;99027.00;;;;2077191;28;20617;-68
2023/01/19 02:58:38;;;;;;;5.10;3.90;;;;;18.60;99023.00;;;;2083913;28;20306;-68
2023/01/19 02:59:42;;;;;;;5.50;3.85;;;;;18.60;99021.00;;;;2083554;28;20218;-68
2023/01/19 03:00:52;;;;;;;4.93;4.00;;;;;18.50;99024.00;;;;2075840;28;20225;-68
2023/01/19 03:02:20;;;;;;;4.20;3.80;;;;;18.60;99025.00;;;;2059405;28;20222;-69
2023/01/19 03:03:29;;;;;;;5.93;4.05;;;;;18.60;99018.00;;;;2083065;28;20235;-68
2023/01/19 03:04:30;;;;;;;5.05;4.03;;;;;18.50;99025.00;;;;2075363;28;20208;-68
2023/01/19 03:05:39;;;;;;;4.10;3.73;;;;;18.50;99015.00;;;;2083401;28;20299;-68
2023/01/19 03:06:48;;;;;;;4.50;4.10;;;;;18.50;99024.00;;;;2073485;28;20721;-68
2023/01/19 03:07:57;;;;;;;3.83;3.53;;;;;18.50;99009.00;;;;2068116;28;20229;-68
2023/01/19 03:09:01;;;;;;;4.45;3.65;;;;;18.50;99012.00;;;;2061309;28;20615;-68
2023/01/19 03:10:22;;;;;;;4.07;3.72;;;;;18.50;99034.00;;;;2049902;28;20226;-68
2023/01/19 03:11:22;;;;;;;4.10;3.70;;;;;18.60;99013.00;;;;2075236;28;20220;-69
2023/01/19 03:13:01;;;;;;;4.30;4.00;;;;;18.60;99027.00;;;;2076022;28;20217;-68
2023/01/19 03:14:07;;;;;;;4.20;3.75;;;;;18.60;99022.00;;;;2070071;28;20225;-68
2023/01/19 03:15:21;;;;;;;5.05;4.38;;;;;18.50;99018.00;;;;2074301;28;20566;-68
2023/01/19 03:16:35;;;;;;;6.72;3.70;;;;;18.50;99023.00;;;;2062340;28;20302;-69
2023/01/19 03:17:35;;;;;;;4.60;3.85;;;;;18.50;99014.00;;;;2080637;28;20224;-69
2023/01/19 03:18:35;;;;;;;3.93;3.10;;;;;18.50;99023.00;;;;2083118;28;20245;-69
2023/01/19 03:19:38;;;;;;;3.90;3.60;;;;;18.50;99023.00;;;;2075095;28;20209;-69
2023/01/19 03:20:39;;;;;;;3.90;3.50;;;;;18.50;99016.00;;;;2066461;28;20720;-69
2023/01/19 03:21:41;;;;;;;4.40;3.50;;;;;18.50;99018.00;;;;2066349;28;20209;-69
2023/01/19 03:22:41;;;;;;;4.05;3.42;;;;;18.50;99012.00;;;;2067351;28;20240;-69
2023/01/19 03:23:42;;;;;;;5.10;3.60;;;;;18.40;99024.00;;;;2075461;28;20217;-68
2023/01/19 03:24:44;;;;;;;6.63;4.10;;;;;18.50;99018.00;;;;2083419;28;20220;-69
2023/01/19 03:25:44;;;;;;;4.88;4.35;;;;;18.50;99016.00;;;;2083739;28;20263;-69
2023/01/19 03:26:47;;;;;;;3.97;3.57;;;;;18.50;99029.00;;;;2075256;28;20323;-69
2023/01/19 03:27:48;;;;;;;4.05;3.65;;;;;18.50;99030.00;;;;2083565;28;20205;-68
2023/01/19 03:28:48;;;;;;;5.17;4.03;;;;;18.50;99039.00;;;;2075313;28;20216;-68
2023/01/19 03:30:00;;;;;;;3.53;2.93;;;;;18.50;99026.00;;;;2067358;28;20601;-69
2023/01/19 03:31:25;;;;;;;5.22;3.35;;;;;18.50;99022.00;;;;2069792;28;20218;-70
2023/01/19 03:32:29;;;;;;;3.72;3.25;;;;;18.50;99031.00;;;;2080866;28;20213;-68
2023/01/19 03:33:31;;;;;;;4.40;4.00;;;;;18.50;99029.00;;;;2077211;28;20229;-69
2023/01/19 03:34:31;;;;;;;3.75;3.40;;;;;18.50;99018.00;;;;2067871;28;20686;-69
2023/01/19 03:35:33;;;;;;;4.13;3.73;;;;;18.50;99011.00;;;;2068248;28;20230;-69
2023/01/19 03:36:36;;;;;;;4.15;3.85;;;;;18.50;99026.00;;;;2060271;28;20219;-69
2023/01/19 03:37:38;;;;;;;4.30;3.90;;;;;18.50;99018.00;;;;2068444;28;20222;-69
2023/01/19 03:38:38;;;;;;;3.78;3.45;;;;;18.50;99025.00;;;;2075257;28;20213;-68
2023/01/19 03:39:39;;;;;;;4.50;3.67;;;;;18.50;99013.00;;;;2067234;28;20214;-68
2023/01/19 03:40:40;;;;;;;3.33;3.00;;;;;18.50;99014.00;;;;2075437;28;20230;-69
2023/01/19 03:41:40;;;;;;;4.30;3.90;;;;;18.40;99021.00;;;;2083793;28;20202;-69
2023/01/19 03:42:40;;;;;;;3.80;3.50;;;;;18.50;99021.00;;;;2076227;28;20301;-69
2023/01/19 03:43:41;;;;;;;4.80;4.30;;;;;18.50;99020.00;;;;2068168;28;20282;-68
2023/01/19 03:44:41;;;;;;;4.03;3.63;;;;;18.40;99025.00;;;;2075919;28;20217;-68
2023/01/19 03:45:41;;;;;;;4.80;3.10;;;;;18.40;99016.00;;;;2076149;28;20214;-69
2023/01/19 03:46:42;;;;;;;4.00;3.70;;;;;18.40;99023.00;;;;2075410;28;20340;-68
2023/01/19 03:47:43;;;;;;;3.90;3.53;;;;;18.40;99013.00;;;;2075302;28;20206;-69
2023/01/19 03:48:44;;;;;;;4.20;3.42;;;;;18.40;99028.00;;;;2075197;28;20531;-69
2023/01/19 03:49:45;;;;;;;5.35;3.50;;;;;18.40;99019.00;;;;2074909;28;20768;-69
2023/01/19 03:50:45;;;;;;;4.30;3.60;;;;;18.40;99019.00;;;;2076153;28;20309;-69
2023/01/19 03:51:45;;;;;;;4.53;3.47;;;;;18.40;99030.00;;;;2076206;28;20210;-69
2023/01/19 03:52:46;;;;;;;3.73;3.30;;;;;18.40;99015.00;;;;2084382;28;20833;-69
2023/01/19 03:53:46;;;;;;;3.30;2.97;;;;;18.40;99032.00;;;;2075949;28;20241;-69
2023/01/19 03:54:47;;;;;;;5.50;3.80;;;;;18.40;99025.00;;;;2075254;28;20224;-69
2023/01/19 03:55:48;;;;;;;4.83;3.57;;;;;18.40;99020.00;;;;2083230;28;20219;-69
2023/01/19 03:56:51;;;;;;;5.75;3.70;;;;;18.50;99022.00;;;;2075524;28;20252;-69
2023/01/19 03:57:51;;;;;;;3.80;3.42;;;;;18.40;99019.00;;;;2083311;28;20217;-69
2023/01/19 03:58:51;;;;;;;4.63;3.83;;;;;18.40;99028.00;;;;2084896;28;20214;-68
2023/01/19 03:59:52;;;;;;;3.87;3.33;;;;;18.40;99033.00;;;;2083329;28;20328;-68
2023/01/19 04:00:52;;;;;;;4.47;3.33;;;;;18.40;99028.00;;;;2084285;28;20713;-69
2023/01/19 04:01:53;;;;;;;4.77;3.70;;;;;18.40;99035.00;;;;2085079;28;20236;-68
2023/01/19 04:02:54;;;;;;;4.00;3.70;;;;;18.40;99029.00;;;;2084022;28;20646;-69
2023/01/19 04:03:54;;;;;;;3.60;3.30;;;;;18.40;99030.00;;;;2084160;28;20236;-69
2023/01/19 04:04:54;;;;;;;3.50;3.20;;;;;18.40;99031.00;;;;2083446;28;20231;-68
2023/01/19 04:05:55;;;;;;;3.83;3.53;;;;;18.40;99032.00;;;;2083390;28;20232;-69
2023/01/19 04:06:56;;;;;;;3.70;3.40;;;;;18.40;99020.00;;;;2084780;28;20667;-69
2023/01/19 04:07:56;;;;;;;3.30;3.00;;;;;18.40;99021.00;;;;2084552;28;20584;-68
2023/01/19 04:08:57;;;;;;;3.53;3.10;;;;;18.40;99027.00;;;;2084917;28;20492;-68
2023/01/19 04:09:57;;;;;;;4.43;3.60;;;;;18.40;99029.00;;;;2084029;28;20691;-69
2023/01/19 04:10:57;;;;;;;3.77;3.37;;;;;18.40;99015.00;;;;2083363;28;20757;-69
2023/01/19 04:12:00;;;;;;;3.90;3.53;;;;;18.30;99030.00;;;;2084102;28;20217;-69
2023/01/19 04:13:00;;;;;;;4.57;3.60;;;;;18.40;99023.00;;;;2083374;28;20277;-69
2023/01/19 04:14:01;;;;;;;3.33;3.00;;;;;18.40;99025.00;;;;2083534;28;20888;-69
2023/01/19 04:15:01;;;;;;;3.50;3.20;;;;;18.40;99028.00;;;;2084545;28;20229;-69
2023/01/19 04:16:02;;;;;;;3.50;3.17;;;;;18.30;99026.00;;;;2084855;28;20233;-68
2023/01/19 04:17:02;;;;;;;4.37;3.60;;;;;18.40;99025.00;;;;2084926;28;20267;-69
2023/01/19 04:18:04;;;;;;;3.23;2.80;;;;;18.40;99024.00;;;;2084377;28;20777;-68
2023/01/19 04:19:04;;;;;;;4.50;3.20;;;;;18.30;99024.00;;;;2084318;28;20220;-69
2023/01/19 04:20:05;;;;;;;3.50;3.20;;;;;18.20;99027.00;;;;2084104;28;20215;-69
2023/01/19 04:21:06;;;;;;;4.17;3.07;;;;;18.30;99022.00;;;;2083916;28;20227;-69
2023/01/19 04:22:06;;;;;;;4.05;3.50;;;;;18.30;99033.00;;;;2075187;28;20225;-69
2023/01/19 04:23:06;;;;;;;3.87;3.30;;;;;18.30;99029.00;;;;2067326;28;20242;-69
2023/01/19 04:24:08;;;;;;;3.87;3.47;;;;;18.30;99027.00;;;;2083345;28;20217;-69
2023/01/19 04:25:09;;;;;;;4.20;3.45;;;;;18.30;99026.00;;;;2084268;28;20315;-69
2023/01/19 04:26:09;;;;;;;3.97;3.50;;;;;18.30;98991.00;;;;2075832;28;20225;-69
2023/01/19 04:27:09;;;;;;;4.27;3.87;;;;;18.30;99035.00;;;;2067354;28;20870;-69
2023/01/19 04:28:12;;;;;;;4.00;3.60;;;;;18.30;99035.00;;;;2083034;28;20298;-69
2023/01/19 04:29:13;;;;;;;4.28;3.33;;;;;18.30;99030.00;;;;2083342;28;20212;-69
2023/01/19 04:30:13;;;;;;;3.13;2.93;;;;;18.30;99026.00;;;;2083392;28;20213;-68
2023/01/19 04:31:14;;;;;;;4.90;3.70;;;;;18.30;99024.00;;;;2084339;28;20218;-69
2023/01/19 04:32:14;;;;;;;4.30;3.60;;;;;18.30;99024.00;;;;2084604;28;20582;-68
2023/01/19 04:33:14;;;;;;;8.40;3.57;;;;;18.30;99027.00;;;;2085894;28;20282;-69
2023/01/19 04:34:15;;;;;;;5.40;3.70;;;;;18.30;99028.00;;;;2083842;28;20218;-69
2023/01/19 04:35:15;;;;;;;4.27;3.87;;;;;18.30;99014.00;;;;2084066;28;20220;-68
2023/01/19 04:36:16;;;;;;;6.43;3.40;;;;;18.30;99026.00;;;;2084755;28;20220;-69
2023/01/19 04:37:16;;;;;;;4.00;3.67;;;;;18.30;99012.00;;;;2084782;28;20583;-69
2023/01/19 04:38:16;;;;;;;3.43;3.13;;;;;18.30;99027.00;;;;2083786;28;20216;-68
2023/01/19 04:39:17;;;;;;;3.50;2.93;;;;;18.30;99019.00;;;;2083746;28;20209;-69
2023/01/19 04:40:17;;;;;;;4.17;3.77;;;;;18.30;99016.00;;;;2083884;28;20258;-69
2023/01/19 04:41:18;;;;;;;4.40;3.40;;;;;18.30;99028.00;;;;2083003;28;20330;-69
2023/01/19 04:42:18;;;;;;;3.20;2.90;;;;;18.30;98993.00;;;;2083192;28;20213;-69
2023/01/19 04:43:19;;;;;;;3.97;3.30;;;;;18.30;99025.00;;;;2083717;28;20220;-69
2023/01/19 04:44:19;;;;;;;4.20;3.37;;;;;18.30;99017.00;;;;2084622;28;20208;-68
2023/01/19 04:45:20;;;;;;;3.87;3.40;;;;;18.30;99010.00;;;;2084542;28;20727;-68
2023/01/19 04:46:20;;;;;;;5.07;3.40;;;;;18.30;99006.00;;;;2075448;28;20246;-69
2023/01/19 04:47:20;;;;;;;3.63;3.20;;;;;18.30;99013.00;;;;2075695;28;20209;-69
2023/01/19 04:48:21;;;;;;;3.20;2.90;;;;;18.30;99021.00;;;;2083583;28;20613;-68
2023/01/19 04:49:21;;;;;;;4.03;3.63;;;;;18.30;99014.00;;;;2083886;28;20216;-68
2023/01/19 04:50:21;;;;;;;3.67;3.13;;;;;18.30;99009.00;;;;2083625;28;20212;-69
2023/01/19 04:51:22;;;;;;;3.60;3.30;;;;;18.30;99010.00;;;;2083714;28;20600;-69
2023/01/19 04:52:22;;;;;;;3.80;2.80;;;;;18.30;98997.00;;;;2083933;28;20737;-69
2023/01/19 04:53:22;;;;;;;4.10;3.70;;;;;18.20;99011.00;;;;2084664;28;20213;-69
2023/01/19 04:54:22;;;;;;;3.93;3.10;;;;;18.30;99012.00;;;;2084427;28;20209;-68
2023/01/19 04:55:23;;;;;;;3.50;2.77;;;;;18.30;99024.00;;;;2084436;28;20207;-69
2023/01/19 04:56:23;;;;;;;3.60;3.20;;;;;18.20;99017.00;;;;2083884;28;20223;-69
2023/01/19 04:57:24;;;;;;;3.70;3.40;;;;;18.20;99027.00;;;;2083650;28;20228;-69
2023/01/19 04:58:24;;;;;;;4.80;3.43;;;;;18.20;99013.00;;;;2083504;28;20609;-68
2023/01/19 04:59:24;;;;;;;3.60;3.30;;;;;18.20;99023.00;;;;2083703;28;20216;-68
2023/01/19 05:00:25;;;;;;;4.13;3.50;;;;;18.30;99026.00;;;;2082599;28;20593;-69
2023/01/19 05:01:26;;;;;;;3.57;3.27;;;;;18.30;99017.00;;;;2085674;28;20224;-69
2023/01/19 05:02:26;;;;;;;3.43;3.13;;;;;18.20;99005.00;;;;2074920;28;20463;-69
2023/01/19 05:03:26;;;;;;;5.07;3.50;;;;;18.20;99008.00;;;;2082322;28;20252;-68
2023/01/19 05:04:27;;;;;;;3.50;3.20;;;;;18.20;99020.00;;;;2083025;28;20240;-69
2023/01/19 05:05:27;;;;;;;3.37;2.87;;;;;18.20;99019.00;;;;2079195;28;20218;-69
2023/01/19 05:06:28;;;;;;;3.53;3.23;;;;;18.20;99021.00;;;;2091102;28;20715;-69
2023/01/19 05:07:28;;;;;;;4.13;3.10;;;;;18.20;99020.00;;;;2085994;28;20214;-68
2023/01/19 05:08:28;;;;;;;3.20;3.00;;;;;18.20;99021.00;;;;2074209;28;20253;-69
2023/01/19 05:09:29;;;;;;;3.10;2.83;;;;;18.20;99029.00;;;;2073117;28;20210;-69
2023/01/19 05:10:29;;;;;;;3.40;2.97;;;;;18.20;99029.00;;;;2063990;28;20309;-69
2023/01/19 05:11:29;;;;;;;3.50;3.00;;;;;18.20;99034.00;;;;2074892;28;20259;-69
2023/01/19 05:12:30;;;;;;;4.03;3.03;;;;;18.20;99033.00;;;;2081101;28;20331;-69
2023/01/19 05:13:30;;;;;;;3.83;3.27;;;;;18.20;99027.00;;;;2083266;28;20208;-69
2023/01/19 05:14:30;;;;;;;3.63;3.33;;;;;18.20;99038.00;;;;2090082;28;20243;-69
2023/01/19 05:15:31;;;;;;;3.50;3.20;;;;;18.20;99026.00;;;;2084480;28;20209;-69
2023/01/19 05:16:31;;;;;;;4.07;3.00;;;;;18.20;99029.00;;;;2084159;28;20247;-69
2023/01/19 05:17:32;;;;;;;3.20;3.00;;;;;18.20;99027.00;;;;2084285;28;20209;-69
2023/01/19 05:18:35;;;;;;;3.53;3.20;;;;;18.20;99031.00;;;;2083207;28;20212;-69
2023/01/19 05:19:35;;;;;;;3.17;2.90;;;;;18.20;99002.00;;;;2083587;28;20212;-69
2023/01/19 05:20:35;;;;;;;4.00;3.33;;;;;18.20;99026.00;;;;2083624;28;20647;-69